M/V Blue Fin — WDC7379 — position and weather

sailwx.info

Track history (hours):
 
Tides and Currents Weather Stations Pressure Air Temp Water Temp Dewpoint Dewpoint Depression Visibility Wind Speed Wind Dir Waves Ship Positions

M/V Blue Fin

Owner: F/V Northwind, Inc., Seattle, WA. More information available from US FCC via Universal Licensing System and Coast Guard Vessel Documentation Center.

Last reported at 2014-Oct-15 15:27 UTC. Time now 2014-Oct-24 11:21 UTC.
Position N 47°39' W 122°20'.
Warning: this ship's position is 8 days out of date.

Length 50 m; draft 12 m.

Type: Cargo ship. MMSI: 367070510.

Date/timePositionNaut miles runAvg speedWind from/ knotsBaromVisibWave heightAir tempDewpointWater temp
2014-Oct-15 15:27N 47°39' W 122°20'0 0.0
2014-Oct-14 01:24N 47°39' W 122°20'0 0.0
2014-Oct-14 01:18N 47°39' W 122°20'0 0.0
2014-Oct-14 00:33N 47°39' W 122°20'0 0.0
2014-Oct-14 00:33N 47°39' W 122°20'0 0.0
2014-Oct-13 23:33N 47°39' W 122°20'0 0.0
2014-Oct-13 23:33N 47°39' W 122°20'0 0.0
2014-Oct-13 22:18N 47°39' W 122°20'0 0.0
2014-Oct-13 22:15N 47°39' W 122°20'0 0.0
2014-Oct-13 21:33N 47°39' W 122°20'0 0.0
2014-Oct-13 21:30N 47°39' W 122°20'0 0.0
2014-Oct-13 20:30N 47°39' W 122°20'0 0.0
2014-Oct-13 20:30N 47°39' W 122°20'0 0.0
2014-Oct-13 19:33N 47°39' W 122°20'0 0.0
2014-Oct-13 19:15N 47°39' W 122°20'0 0.0
2014-Oct-13 18:33N 47°39' W 122°20'0 0.0
2014-Oct-13 18:30N 47°39' W 122°20'0 0.0
2014-Oct-13 17:12N 47°39' W 122°20'0 0.0
2014-Oct-13 17:09N 47°39' W 122°20'1 1.1
2014-Oct-13 16:34N 47°39' W 122°21'0 3.3
2014-Oct-13 16:30N 47°39' W 122°22'1 1.3
2014-Oct-13 15:33N 47°40' W 122°23'1 1.7
2014-Oct-13 15:14N 47°40' W 122°24'1 1.7
2014-Oct-13 14:33N 47°41' W 122°25'0 1.2
2014-Oct-13 14:29N 47°41' W 122°25'2 2.6
2014-Oct-13 13:34N 47°43' W 122°25'0 3.7
2014-Oct-13 13:29N 47°43' W 122°26'4 4.3
2014-Oct-13 12:34N 47°47' W 122°27'0 4.3
2014-Oct-13 12:29N 47°48' W 122°28'4 4.5
2014-Oct-13 11:34N 47°52' W 122°29'0 4.2
2014-Oct-13 11:29N 47°52' W 122°29'4 4.4
2014-Oct-13 10:33N 47°56' W 122°31'1 3.8
2014-Oct-13 10:13N 47°56' W 122°33'3 3.8
2014-Oct-13 09:32N 47°58' W 122°36'5 4.0
2014-Oct-13 08:15N 48°03' W 122°39'4 5.0
2014-Oct-13 07:24N 48°07' W 122°41'4 4.9
2014-Oct-13 06:33N 48°09' W 122°45'1 4.2
2014-Oct-13 06:13N 48°10' W 122°47'1 4.0
2014-Oct-13 05:58N 48°11' W 122°48'2 4.8
2014-Oct-13 05:33N 48°13' W 122°49'7 7.4
2014-Oct-13 04:34N 48°20' W 122°47'1 7.2
2014-Oct-13 04:28N 48°21' W 122°46'7 7.4
2014-Oct-13 03:34N 48°27' W 122°45'7 7.3
2014-Oct-13 02:34N 48°35' W 122°45'7 6.5
2014-Oct-13 01:34N 48°41' W 122°44'6 6.3
2014-Oct-13 00:33N 48°46' W 122°50'8 7.4
2014-Oct-12 23:27N 48°50' W 123°00'6 6.7
2014-Oct-12 22:33N 48°54' W 123°08'7 7.1
2014-Oct-12 21:33N 48°59' W 123°16'8 8.0
2014-Oct-12 20:33N 49°04' W 123°25'8 8.4
2014-Oct-12 19:34N 49°10' W 123°34'9 8.4
2014-Oct-12 18:30N 49°14' W 123°46'9 8.7
2014-Oct-12 17:31N 49°18' W 123°57'11 8.6
2014-Oct-12 16:12N 49°23' W 124°13'6 8.5
2014-Oct-12 15:30N 49°25' W 124°21'8 8.3
2014-Oct-12 14:32N 49°31' W 124°31'9 8.5
2014-Oct-12 13:32N 49°37' W 124°40'8 8.5
2014-Oct-12 12:33N 49°43' W 124°48'610.9
2014-Oct-12 12:00N 49°48' W 124°54'6 7.1 130 / 41023.210.8 11.0 9.013.3
2014-Oct-12 11:12N 49°52' W 125°01'32 6.2
2014-Oct-12 06:00N 50°18' W 125°30'70 8.1 130 / 31021.3 2.2 12.011.010.7
2014-Oct-11 21:21N 50°46' W 127°11'910.0
2014-Oct-11 20:29N 50°49' W 127°23'1010.3
2014-Oct-11 19:33N 50°53' W 127°37'1010.1
2014-Oct-11 18:32N 51°02' W 127°47'4 8.4
2014-Oct-11 18:00N 51°06' W 127°48'511.6 190 / 211014.2 5.4 1.014.011.214.1
2014-Oct-11 17:33N 51°11' W 127°51'19 8.9
2014-Oct-11 15:26N 51°30' W 127°51'30 8.9
2014-Oct-11 12:00N 52°00' W 127°54'141 7.8 120 / 201010.110.8 12.010.113.6
2014-Oct-10 18:00N 53°54' W 130°12'19 7.9 020 / 271002.9 5.4 0.514.011.812.4
2014-Oct-10 15:32N 54°11' W 130°27'8 8.3
2014-Oct-10 14:34N 54°18' W 130°34'8 7.6
2014-Oct-10 13:33N 54°26' W 130°35'8 8.1
2014-Oct-10 12:33N 54°34' W 130°36'169 6.9
2014-Oct-09 12:00N 56°18' W 134°30'6010.1 300 / 131008.010.8 0.5 8.0 3.311.5
2014-Oct-09 06:00N 57°18' W 134°42'71 8.5 200 / 81013.010.8 8.0 4.610.5
2014-Oct-08 21:33N 58°19' W 135°52'9 9.1
2014-Oct-08 20:32N 58°19' W 136°10'71 8.3
2014-Oct-08 12:00N 58°12' W 138°24'235 9.8 240 / 31015.210.8 8.0 1.713.5
2014-Oct-07 12:00N 56°12' W 144°36'56 9.3 300 / 101019.110.8 0.5 8.0 0.513.2
2014-Oct-07 06:00N 55°48' W 146°06'57 9.5 300 / 101019.210.8 0.5 8.0 1.913.3
2014-Oct-07 00:00N 55°30' W 147°42'   300 / 191019.210.8 1.5 8.5 1.114.1
Track history (hours):
 
Tides and Currents Weather Stations Pressure Air Temp Water Temp Dewpoint Dewpoint Depression Visibility Wind Speed Wind Dir Waves Ship Positions

M/V Blue Fin

Owner: F/V Northwind, Inc., Seattle, WA. More information available from US FCC via Universal Licensing System and Coast Guard Vessel Documentation Center.

Last reported at 2014-Oct-15 15:27 UTC. Time now 2014-Oct-24 11:21 UTC.
Position N 47°39' W 122°20'.
Warning: this ship's position is 8 days out of date.

Length 50 m; draft 12 m.

Type: Cargo ship. MMSI: 367070510.

Date/timePositionNaut miles runAvg speedWind from/ knotsBaromVisibWave heightAir tempDewpointWater temp
2014-Oct-15 15:27N 47°39' W 122°20'0 0.0
2014-Oct-14 01:24N 47°39' W 122°20'0 0.0
2014-Oct-14 01:18N 47°39' W 122°20'0 0.0
2014-Oct-14 00:33N 47°39' W 122°20'0 0.0
2014-Oct-14 00:33N 47°39' W 122°20'0 0.0
2014-Oct-13 23:33N 47°39' W 122°20'0 0.0
2014-Oct-13 23:33N 47°39' W 122°20'0 0.0
2014-Oct-13 22:18N 47°39' W 122°20'0 0.0
2014-Oct-13 22:15N 47°39' W 122°20'0 0.0
2014-Oct-13 21:33N 47°39' W 122°20'0 0.0
2014-Oct-13 21:30N 47°39' W 122°20'0 0.0
2014-Oct-13 20:30N 47°39' W 122°20'0 0.0
2014-Oct-13 20:30N 47°39' W 122°20'0 0.0
2014-Oct-13 19:33N 47°39' W 122°20'0 0.0
2014-Oct-13 19:15N 47°39' W 122°20'0 0.0
2014-Oct-13 18:33N 47°39' W 122°20'0 0.0
2014-Oct-13 18:30N 47°39' W 122°20'0 0.0
2014-Oct-13 17:12N 47°39' W 122°20'0 0.0
2014-Oct-13 17:09N 47°39' W 122°20'1 1.1
2014-Oct-13 16:34N 47°39' W 122°21'0 3.3
2014-Oct-13 16:30N 47°39' W 122°22'1 1.3
2014-Oct-13 15:33N 47°40' W 122°23'1 1.7
2014-Oct-13 15:14N 47°40' W 122°24'1 1.7
2014-Oct-13 14:33N 47°41' W 122°25'0 1.2
2014-Oct-13 14:29N 47°41' W 122°25'2 2.6
2014-Oct-13 13:34N 47°43' W 122°25'0 3.7
2014-Oct-13 13:29N 47°43' W 122°26'4 4.3
2014-Oct-13 12:34N 47°47' W 122°27'0 4.3
2014-Oct-13 12:29N 47°48' W 122°28'4 4.5
2014-Oct-13 11:34N 47°52' W 122°29'0 4.2
2014-Oct-13 11:29N 47°52' W 122°29'4 4.4
2014-Oct-13 10:33N 47°56' W 122°31'1 3.8
2014-Oct-13 10:13N 47°56' W 122°33'3 3.8
2014-Oct-13 09:32N 47°58' W 122°36'5 4.0
2014-Oct-13 08:15N 48°03' W 122°39'4 5.0
2014-Oct-13 07:24N 48°07' W 122°41'4 4.9
2014-Oct-13 06:33N 48°09' W 122°45'1 4.2
2014-Oct-13 06:13N 48°10' W 122°47'1 4.0
2014-Oct-13 05:58N 48°11' W 122°48'2 4.8
2014-Oct-13 05:33N 48°13' W 122°49'7 7.4
2014-Oct-13 04:34N 48°20' W 122°47'1 7.2
2014-Oct-13 04:28N 48°21' W 122°46'7 7.4
2014-Oct-13 03:34N 48°27' W 122°45'7 7.3
2014-Oct-13 02:34N 48°35' W 122°45'7 6.5
2014-Oct-13 01:34N 48°41' W 122°44'6 6.3
2014-Oct-13 00:33N 48°46' W 122°50'8 7.4
2014-Oct-12 23:27N 48°50' W 123°00'6 6.7
2014-Oct-12 22:33N 48°54' W 123°08'7 7.1
2014-Oct-12 21:33N 48°59' W 123°16'8 8.0
2014-Oct-12 20:33N 49°04' W 123°25'8 8.4
2014-Oct-12 19:34N 49°10' W 123°34'9 8.4
2014-Oct-12 18:30N 49°14' W 123°46'9 8.7
2014-Oct-12 17:31N 49°18' W 123°57'11 8.6
2014-Oct-12 16:12N 49°23' W 124°13'6 8.5
2014-Oct-12 15:30N 49°25' W 124°21'8 8.3
2014-Oct-12 14:32N 49°31' W 124°31'9 8.5
2014-Oct-12 13:32N 49°37' W 124°40'8 8.5
2014-Oct-12 12:33N 49°43' W 124°48'610.9
2014-Oct-12 12:00N 49°48' W 124°54'6 7.1 130 / 41023.210.8 11.0 9.013.3
2014-Oct-12 11:12N 49°52' W 125°01'32 6.2
2014-Oct-12 06:00N 50°18' W 125°30'70 8.1 130 / 31021.3 2.2 12.011.010.7
2014-Oct-11 21:21N 50°46' W 127°11'910.0
2014-Oct-11 20:29N 50°49' W 127°23'1010.3
2014-Oct-11 19:33N 50°53' W 127°37'1010.1
2014-Oct-11 18:32N 51°02' W 127°47'4 8.4
2014-Oct-11 18:00N 51°06' W 127°48'511.6 190 / 211014.2 5.4 1.014.011.214.1
2014-Oct-11 17:33N 51°11' W 127°51'19 8.9
2014-Oct-11 15:26N 51°30' W 127°51'30 8.9
2014-Oct-11 12:00N 52°00' W 127°54'141 7.8 120 / 201010.110.8 12.010.113.6
2014-Oct-10 18:00N 53°54' W 130°12'19 7.9 020 / 271002.9 5.4 0.514.011.812.4
2014-Oct-10 15:32N 54°11' W 130°27'8 8.3
2014-Oct-10 14:34N 54°18' W 130°34'8 7.6
2014-Oct-10 13:33N 54°26' W 130°35'8 8.1
2014-Oct-10 12:33N 54°34' W 130°36'169 6.9
2014-Oct-09 12:00N 56°18' W 134°30'6010.1 300 / 131008.010.8 0.5 8.0 3.311.5
2014-Oct-09 06:00N 57°18' W 134°42'71 8.5 200 / 81013.010.8 8.0 4.610.5
2014-Oct-08 21:33N 58°19' W 135°52'9 9.1
2014-Oct-08 20:32N 58°19' W 136°10'71 8.3
2014-Oct-08 12:00N 58°12' W 138°24'235 9.8 240 / 31015.210.8 8.0 1.713.5
2014-Oct-07 12:00N 56°12' W 144°36'56 9.3 300 / 101019.110.8 0.5 8.0 0.513.2
2014-Oct-07 06:00N 55°48' W 146°06'57 9.5 300 / 101019.210.8 0.5 8.0 1.913.3
2014-Oct-07 00:00N 55°30' W 147°42'   300 / 191019.210.8 1.5 8.5 1.114.1

Dump ship's entire track history